Time;durP1;ratioP1;P1;durP2;ratioP2;P2;SDS_P1;SDS_P2;PMS_P1;PMS_P2;Temp;Humidity;BMP_temperature;BMP_pressure;BME280_temperature;BME280_humidity;BME280_pressure;Samples;Min_cycle;Max_cycle;Signal;HPM_P1;HPM_P2
2021/12/05 00:21:41;;;;;;;11.43;3.38;;;4.30;99.90;;;;;;5092629;28;20105;-79
2021/12/05 00:24:14;;;;;;;11.57;2.95;;;4.30;99.90;;;;;;5103077;28;20043;-82
2021/12/05 00:26:44;;;;;;;13.07;4.55;;;4.30;99.90;;;;;;5072850;28;20032;-80
2021/12/05 01:04:25;;;;;;;9.77;3.35;;;4.30;99.90;;;;;;5052214;28;20509;-78
2021/12/05 01:16:37;;;;;;;11.68;3.63;;;4.30;99.90;;;;;;5090710;28;20048;-81
2021/12/05 01:19:05;;;;;;;8.10;3.00;;;4.20;99.90;;;;;;5074455;28;20055;-79
2021/12/05 01:21:32;;;;;;;8.00;3.35;;;4.20;99.90;;;;;;5090988;28;20039;-81
2021/12/05 01:24:10;;;;;;;10.35;4.45;;;4.20;99.90;;;;;;5090201;28;20040;-82
2021/12/05 01:26:39;;;;;;;14.40;4.07;;;4.20;99.90;;;;;;5125141;27;20048;-81
2021/12/05 01:37:18;;;;;;;10.10;3.78;;;4.30;99.90;;;;;;5090485;28;20040;-81
2021/12/05 01:40:02;;;;;;;9.55;3.70;;;4.30;99.90;;;;;;5107163;28;20458;-80
2021/12/05 01:50:44;;;;;;;11.55;5.13;;;4.40;99.90;;;;;;5091200;28;20048;-80
2021/12/05 01:58:48;;;;;;;7.43;4.18;;;4.40;99.90;;;;;;5072711;28;20052;-77
2021/12/05 02:31:01;;;;;;;18.42;9.32;;;4.40;99.90;;;;;;5114355;27;20047;-76
2021/12/05 02:38:53;;;;;;;22.58;10.60;;;4.30;99.90;;;;;;5088129;28;20078;-78
2021/12/05 02:41:21;;;;;;;20.23;11.15;;;4.30;99.90;;;;;;5072926;28;20104;-78
2021/12/05 02:43:55;;;;;;;22.80;11.95;;;4.30;99.90;;;;;;5083510;28;20182;-78
2021/12/05 02:46:23;;;;;;;18.40;10.73;;;4.30;99.90;;;;;;5089681;28;20052;-80
2021/12/05 02:48:49;;;;;;;24.92;11.35;;;4.30;99.90;;;;;;5082454;28;20068;-79
2021/12/05 02:51:24;;;;;;;16.55;10.75;;;4.30;99.90;;;;;;5122275;27;20106;-80
2021/12/05 02:56:34;;;;;;;21.40;11.48;;;4.30;99.90;;;;;;5090235;28;20111;-78
2021/12/05 02:59:25;;;;;;;28.13;11.90;;;4.30;99.90;;;;;;5053780;28;20055;-82
2021/12/05 03:01:51;;;;;;;20.58;11.90;;;4.30;99.90;;;;;;5088181;28;20051;-82
2021/12/05 03:04:17;;;;;;;23.23;12.18;;;4.30;99.90;;;;;;5073066;28;20127;-82
2021/12/05 03:06:51;;;;;;;19.52;11.43;;;4.30;99.90;;;;;;5106718;28;20143;-81
2021/12/05 03:09:18;;;;;;;21.13;12.82;;;4.30;99.90;;;;;;5055816;28;20080;-81
2021/12/05 03:11:45;;;;;;;21.77;12.63;;;4.20;99.90;;;;;;5062124;28;20500;-82
2021/12/05 03:14:11;;;;;;;21.17;12.55;;;4.20;99.90;;;;;;5057904;28;20404;-80
2021/12/05 03:16:39;;;;;;;25.92;12.60;;;4.20;99.90;;;;;;5121494;28;20491;-81
2021/12/05 03:19:06;;;;;;;26.23;12.38;;;4.20;99.90;;;;;;5076039;28;20499;-82
2021/12/05 03:21:33;;;;;;;21.30;12.18;;;4.10;99.90;;;;;;5116311;28;20036;-81
2021/12/05 03:24:01;;;;;;;21.17;12.65;;;4.10;99.90;;;;;;5082813;28;20074;-82
2021/12/05 03:26:30;;;;;;;17.70;11.45;;;4.00;99.90;;;;;;5065860;28;20527;-82
2021/12/05 03:28:57;;;;;;;21.83;11.82;;;4.00;99.90;;;;;;5102502;28;20082;-82
2021/12/05 03:31:25;;;;;;;22.08;10.43;;;4.00;99.90;;;;;;5103121;28;20045;-81
2021/12/05 03:33:52;;;;;;;20.95;11.40;;;3.90;99.90;;;;;;5074079;28;20070;-79
2021/12/05 03:36:19;;;;;;;20.83;11.63;;;3.90;99.90;;;;;;5076388;28;20075;-78
2021/12/05 03:38:45;;;;;;;23.95;11.20;;;3.80;99.90;;;;;;5090475;28;20118;-77
2021/12/05 03:41:12;;;;;;;23.33;11.15;;;3.80;99.90;;;;;;5127448;27;20048;-76
2021/12/05 03:43:40;;;;;;;20.95;10.68;;;3.70;99.90;;;;;;5060290;28;20036;-78
2021/12/05 03:46:06;;;;;;;21.55;10.18;;;3.70;99.90;;;;;;5107343;28;20049;-76
2021/12/05 03:48:37;;;;;;;17.35;10.07;;;3.60;99.90;;;;;;5077636;28;20543;-79
2021/12/05 03:51:04;;;;;;;17.83;9.52;;;3.60;99.90;;;;;;5036224;28;20041;-77
2021/12/05 03:53:29;;;;;;;26.25;10.27;;;3.50;99.90;;;;;;5063983;28;20443;-78
2021/12/05 03:55:56;;;;;;;19.40;10.75;;;3.40;99.90;;;;;;5076052;28;20048;-77
2021/12/05 03:58:24;;;;;;;18.17;8.73;;;3.40;99.90;;;;;;5060012;28;20040;-73
2021/12/05 04:00:55;;;;;;;23.85;9.57;;;3.30;99.90;;;;;;5075215;28;20120;-71
2021/12/05 04:03:23;;;;;;;15.65;8.65;;;3.30;99.90;;;;;;5117128;27;20086;-76
2021/12/05 04:05:49;;;;;;;16.70;8.32;;;3.20;99.90;;;;;;5063491;28;20059;-76
2021/12/05 04:08:17;;;;;;;14.55;8.35;;;3.10;99.90;;;;;;5067650;28;20127;-77
2021/12/05 04:10:47;;;;;;;21.80;8.70;;;3.10;99.90;;;;;;5107239;27;20048;-77
2021/12/05 04:13:14;;;;;;;17.65;8.93;;;3.10;99.90;;;;;;5054594;28;20040;-78
2021/12/05 04:15:40;;;;;;;22.33;8.30;;;3.00;99.90;;;;;;5075743;28;20106;-79
2021/12/05 04:18:06;;;;;;;17.80;7.43;;;3.00;99.90;;;;;;5055477;28;20123;-78
2021/12/05 04:20:33;;;;;;;15.93;8.60;;;2.90;99.90;;;;;;5076234;28;20044;-78
2021/12/05 04:22:58;;;;;;;20.13;8.32;;;2.90;99.90;;;;;;5055972;28;20401;-78
2021/12/05 04:25:25;;;;;;;12.77;7.50;;;2.80;99.90;;;;;;5109145;27;20028;-80
2021/12/05 04:27:53;;;;;;;17.20;7.65;;;2.80;99.90;;;;;;5054844;28;20096;-81
2021/12/05 04:30:21;;;;;;;11.88;6.90;;;2.80;99.90;;;;;;5075184;28;20598;-82
2021/12/05 04:32:48;;;;;;;17.00;7.90;;;2.70;99.90;;;;;;5085414;28;20055;-80
2021/12/05 04:35:14;;;;;;;15.25;6.43;;;2.80;99.90;;;;;;5126660;27;20048;-80
2021/12/05 04:37:40;;;;;;;17.58;5.95;;;2.70;99.90;;;;;;5058418;28;20072;-80
2021/12/05 04:40:07;;;;;;;14.98;6.00;;;2.70;99.90;;;;;;5091136;28;20156;-80
2021/12/05 04:42:33;;;;;;;17.63;5.72;;;2.70;99.90;;;;;;5063561;28;20048;-79
2021/12/05 04:45:21;;;;;;;21.42;5.78;;;2.70;99.90;;;;;;5088509;28;20411;-81
2021/12/05 04:47:47;;;;;;;16.75;5.80;;;2.70;99.90;;;;;;5074768;28;20098;-80
2021/12/05 04:50:14;;;;;;;13.68;6.00;;;2.60;99.90;;;;;;5091647;28;20479;-74
2021/12/05 04:52:39;;;;;;;13.57;5.40;;;2.60;99.90;;;;;;5077121;28;20036;-81
2021/12/05 04:55:07;;;;;;;15.43;5.25;;;2.60;99.90;;;;;;5072123;28;20040;-80
2021/12/05 04:57:32;;;;;;;15.38;5.65;;;2.60;99.90;;;;;;5092838;28;20049;-78
2021/12/05 04:59:58;;;;;;;15.20;4.97;;;2.60;99.90;;;;;;5067774;28;20040;-79
2021/12/05 05:02:25;;;;;;;13.50;5.07;;;2.50;99.90;;;;;;5074253;28;20401;-79
2021/12/05 05:04:53;;;;;;;13.00;4.65;;;2.60;99.90;;;;;;5058641;28;20044;-79
2021/12/05 05:07:26;;;;;;;17.75;4.45;;;2.50;99.90;;;;;;5071213;28;20084;-77
2021/12/05 05:10:08;;;;;;;16.02;5.40;;;2.40;99.90;;;;;;5054495;28;20106;-76
2021/12/05 05:12:34;;;;;;;10.55;4.25;;;2.40;99.90;;;;;;5073388;28;20094;-80
2021/12/05 05:15:00;;;;;;;22.10;5.28;;;2.50;99.90;;;;;;5122885;27;20446;-79
2021/12/05 05:17:26;;;;;;;23.52;5.03;;;2.40;99.90;;;;;;5125730;27;20044;-79
2021/12/05 05:19:57;;;;;;;11.73;4.43;;;2.40;99.90;;;;;;5093328;28;20049;-76
2021/12/05 05:26:10;;;;;;;12.90;4.38;;;2.40;99.90;;;;;;5062580;28;20051;-79
2021/12/05 05:39:37;;;;;;;16.80;4.50;;;2.40;99.90;;;;;;5090504;28;20040;-79
2021/12/05 05:47:38;;;;;;;12.90;4.13;;;2.60;99.90;;;;;;5090811;28;20056;-80
2021/12/05 05:50:04;;;;;;;12.00;4.47;;;2.60;99.90;;;;;;5073147;28;20075;-79
2021/12/05 05:52:31;;;;;;;13.65;4.10;;;2.70;99.90;;;;;;5090808;28;20052;-79
2021/12/05 05:54:59;;;;;;;14.70;3.78;;;2.80;99.90;;;;;;5089799;28;20135;-73
2021/12/05 05:57:30;;;;;;;16.67;4.30;;;2.80;99.90;;;;;;5124253;27;20048;-79
2021/12/05 06:00:05;;;;;;;13.40;4.05;;;2.90;99.90;;;;;;5115763;27;20082;-77
2021/12/05 06:05:16;;;;;;;14.13;4.18;;;2.90;99.90;;;;;;5084946;28;20040;-80
2021/12/05 06:07:43;;;;;;;15.75;4.22;;;3.00;99.90;;;;;;5101083;28;20072;-80
2021/12/05 06:10:15;;;;;;;15.02;4.32;;;3.00;99.90;;;;;;5117212;27;20079;-76
2021/12/05 06:12:41;;;;;;;14.90;3.70;;;3.10;99.90;;;;;;5069385;28;20567;-77
2021/12/05 06:15:10;;;;;;;15.07;4.55;;;3.10;99.90;;;;;;5073310;28;20119;-78
2021/12/05 06:17:36;;;;;;;13.70;4.85;;;3.10;99.90;;;;;;5073225;28;20092;-77
2021/12/05 06:20:07;;;;;;;14.65;4.47;;;3.20;99.90;;;;;;5080496;28;20086;-76
2021/12/05 06:22:33;;;;;;;14.00;4.15;;;3.20;99.90;;;;;;5089847;28;20089;-75
2021/12/05 06:25:00;;;;;;;11.90;5.15;;;3.20;99.90;;;;;;5072852;28;20052;-79
2021/12/05 06:27:26;;;;;;;14.18;5.40;;;3.30;99.90;;;;;;5089987;28;20036;-80
2021/12/05 06:30:00;;;;;;;14.60;5.28;;;3.30;99.90;;;;;;5106352;28;20139;-79
2021/12/05 06:38:23;;;;;;;24.77;8.02;;;3.40;99.90;;;;;;5070599;28;20052;-79
2021/12/05 06:41:08;;;;;;;22.67;7.25;;;3.40;99.90;;;;;;5103603;28;20481;-78
2021/12/05 06:46:13;;;;;;;16.67;7.80;;;3.50;99.90;;;;;;5089213;28;20523;-78
2021/12/05 06:48:43;;;;;;;23.25;8.80;;;3.60;99.90;;;;;;5078678;28;20129;-77
2021/12/05 06:51:11;;;;;;;17.05;9.30;;;3.60;99.90;;;;;;5085948;28;20392;-79
2021/12/05 06:53:37;;;;;;;22.90;9.32;;;3.60;99.90;;;;;;5111772;27;20040;-79
2021/12/05 06:56:04;;;;;;;17.38;8.88;;;3.70;99.90;;;;;;5084307;28;20403;-78
2021/12/05 06:58:31;;;;;;;13.57;8.55;;;3.60;99.90;;;;;;5089627;28;20044;-78
2021/12/05 07:00:57;;;;;;;16.15;9.35;;;3.70;99.90;;;;;;5112226;27;20048;-78
2021/12/05 07:03:23;;;;;;;15.93;8.70;;;3.70;99.90;;;;;;5117554;28;20028;-77
2021/12/05 07:06:00;;;;;;;21.70;9.45;;;3.70;99.90;;;;;;5098540;28;20047;-78
2021/12/05 07:08:31;;;;;;;20.98;10.00;;;3.70;99.90;;;;;;5104826;28;20040;-77
2021/12/05 07:11:17;;;;;;;20.48;9.82;;;3.70;99.90;;;;;;5103787;28;20079;-79
2021/12/05 07:16:29;;;;;;;18.13;9.32;;;3.70;99.90;;;;;;5090188;28;20041;-77
2021/12/05 07:22:22;;;;;;;18.55;8.60;;;3.70;99.90;;;;;;5027171;28;20489;-80
2021/12/05 07:24:49;;;;;;;15.05;7.82;;;3.70;99.90;;;;;;5091098;28;20048;-80
2021/12/05 07:43:49;;;;;;;22.33;10.13;;;3.80;99.90;;;;;;5093790;28;20055;-81
2021/12/05 07:46:14;;;;;;;14.77;8.82;;;3.80;99.90;;;;;;5065828;28;20139;-77
2021/12/05 07:48:43;;;;;;;17.55;9.18;;;3.80;99.90;;;;;;5095148;28;20136;-76
2021/12/05 07:54:12;;;;;;;17.48;9.27;;;3.80;99.90;;;;;;5096116;28;20051;-72
2021/12/05 07:56:51;;;;;;;17.33;9.98;;;3.90;99.90;;;;;;5094781;28;20050;-79
2021/12/05 08:15:34;;;;;;;21.80;10.25;;;3.90;99.90;;;;;;5086874;28;20445;-78
2021/12/05 08:18:00;;;;;;;17.13;9.50;;;3.90;99.90;;;;;;5084195;28;20098;-79
2021/12/05 08:20:32;;;;;;;17.20;10.27;;;4.00;99.90;;;;;;5075089;28;20558;-80
2021/12/05 08:23:00;;;;;;;22.88;10.68;;;4.00;99.90;;;;;;5074537;28;20060;-75
2021/12/05 08:25:29;;;;;;;16.02;10.05;;;4.00;99.90;;;;;;5074829;28;20697;-83
2021/12/05 08:28:05;;;;;;;14.30;9.73;;;4.00;99.90;;;;;;5112988;27;20127;-82
2021/12/05 08:30:34;;;;;;;17.30;10.10;;;4.10;99.90;;;;;;5061470;28;20400;-76
2021/12/05 08:38:53;;;;;;;17.75;10.18;;;4.10;99.90;;;;;;5053243;28;20149;-79
2021/12/05 09:22:12;;;;;;;15.15;8.25;;;4.30;99.90;;;;;;5051113;28;20399;-79
2021/12/05 09:24:42;;;;;;;12.70;8.27;;;4.30;99.90;;;;;;5105073;27;20045;-80
2021/12/05 10:07:59;;;;;;;11.63;8.02;;;4.50;99.90;;;;;;5090587;28;20500;-80
2021/12/05 10:10:42;;;;;;;15.48;7.43;;;4.50;99.90;;;;;;5124389;27;20134;-80
2021/12/05 10:37:29;;;;;;;13.25;6.97;;;4.70;99.90;;;;;;5090116;28;20613;-78
2021/12/05 10:40:34;;;;;;;13.45;7.22;;;4.70;99.90;;;;;;5072266;28;20075;-78
2021/12/05 10:43:01;;;;;;;8.82;6.80;;;4.80;99.90;;;;;;5089776;28;20126;-81
2021/12/05 10:45:31;;;;;;;12.88;7.95;;;4.70;99.90;;;;;;5106631;28;20436;-81
2021/12/05 10:48:00;;;;;;;14.15;8.52;;;4.80;99.90;;;;;;5072607;28;20060;-81
2021/12/05 10:50:28;;;;;;;9.73;6.65;;;4.80;99.90;;;;;;5124180;27;20040;-81
2021/12/05 10:53:25;;;;;;;14.57;7.55;;;4.80;99.90;;;;;;5104691;27;20053;-79
2021/12/05 10:56:17;;;;;;;14.25;6.63;;;4.90;99.90;;;;;;5089533;28;20047;-81
2021/12/05 10:59:06;;;;;;;11.35;6.72;;;4.90;99.90;;;;;;5099798;27;20040;-80
2021/12/05 11:01:38;;;;;;;12.57;6.18;;;4.90;99.90;;;;;;5071982;28;20040;-77
2021/12/05 11:04:15;;;;;;;13.02;6.78;;;5.00;99.90;;;;;;5090059;28;20048;-80
2021/12/05 11:07:07;;;;;;;8.68;5.93;;;5.00;99.90;;;;;;5072045;28;20044;-83
2021/12/05 11:09:57;;;;;;;10.50;6.55;;;5.00;99.90;;;;;;5072013;28;20059;-78
2021/12/05 11:12:31;;;;;;;14.73;6.28;;;5.10;99.90;;;;;;5067052;28;20047;-79
2021/12/05 11:15:07;;;;;;;10.63;6.35;;;5.10;99.90;;;;;;5083309;28;20091;-79
2021/12/05 11:17:37;;;;;;;11.23;6.53;;;5.10;99.90;;;;;;5053495;28;20056;-79
2021/12/05 11:20:13;;;;;;;9.65;6.25;;;5.20;99.90;;;;;;5043279;28;20127;-78
2021/12/05 11:22:45;;;;;;;12.18;6.43;;;5.20;99.90;;;;;;5065708;28;20041;-80
2021/12/05 11:25:16;;;;;;;8.65;4.85;;;5.30;99.90;;;;;;5077456;28;20055;-79
2021/12/05 11:27:46;;;;;;;11.65;6.28;;;5.30;99.90;;;;;;5094839;28;20048;-79
2021/12/05 11:30:19;;;;;;;8.93;6.15;;;5.30;99.90;;;;;;5098164;28;20062;-78
2021/12/05 11:32:50;;;;;;;9.32;6.38;;;5.40;99.90;;;;;;5056192;28;20148;-80
2021/12/05 11:35:59;;;;;;;9.20;5.77;;;5.50;99.90;;;;;;5070996;28;20047;-80
2021/12/05 11:38:31;;;;;;;7.97;5.32;;;5.60;99.90;;;;;;5011270;28;20099;-80
2021/12/05 11:41:10;;;;;;;9.33;5.77;;;5.60;99.90;;;;;;5086924;28;20131;-81
2021/12/05 11:43:40;;;;;;;7.32;5.18;;;5.60;99.90;;;;;;5080972;28;20515;-79
2021/12/05 11:46:13;;;;;;;9.30;4.88;;;5.70;99.90;;;;;;5060736;28;20037;-80
2021/12/05 11:48:50;;;;;;;10.82;5.60;;;5.70;99.90;;;;;;5048566;28;20053;-81
2021/12/05 11:51:28;;;;;;;7.70;4.55;;;5.70;99.90;;;;;;5068790;28;20066;-78
2021/12/05 11:54:08;;;;;;;6.85;4.50;;;5.80;99.90;;;;;;5057595;28;20094;-80
2021/12/05 11:56:34;;;;;;;8.82;5.32;;;5.80;99.90;;;;;;5069469;28;20396;-80
2021/12/05 11:59:19;;;;;;;6.78;5.22;;;5.90;99.90;;;;;;5065559;28;20055;-79
2021/12/05 12:01:47;;;;;;;9.23;5.13;;;5.90;99.90;;;;;;5065383;28;20052;-79
2021/12/05 12:04:16;;;;;;;5.93;4.28;;;5.90;99.90;;;;;;5089091;28;20044;-79
2021/12/05 12:06:46;;;;;;;6.25;4.93;;;6.00;99.90;;;;;;5076218;28;20170;-77
2021/12/05 12:09:11;;;;;;;8.88;4.90;;;6.00;99.90;;;;;;5055939;28;20109;-79
2021/12/05 12:11:37;;;;;;;7.65;4.32;;;6.00;99.90;;;;;;5053831;28;20032;-79
2021/12/05 12:14:04;;;;;;;6.72;4.10;;;6.00;99.90;;;;;;5106913;28;20131;-78
2021/12/05 12:16:34;;;;;;;6.00;4.05;;;6.00;99.90;;;;;;5081882;28;20528;-78
2021/12/05 12:19:05;;;;;;;7.38;3.65;;;6.10;99.90;;;;;;5072650;28;20044;-79
2021/12/05 12:21:39;;;;;;;6.25;3.65;;;6.20;99.90;;;;;;5090187;28;20086;-78
2021/12/05 12:24:06;;;;;;;7.57;4.10;;;6.20;99.90;;;;;;5087562;28;20083;-79
2021/12/05 12:26:31;;;;;;;4.32;3.70;;;6.20;99.90;;;;;;5099352;28;20086;-78
2021/12/05 12:28:58;;;;;;;6.43;4.20;;;6.20;99.90;;;;;;5087354;28;20489;-80
2021/12/05 12:31:35;;;;;;;7.57;3.75;;;6.20;99.90;;;;;;5058196;28;20078;-80
2021/12/05 12:34:08;;;;;;;7.60;4.10;;;6.20;99.90;;;;;;5065134;28;20080;-80
2021/12/05 12:36:38;;;;;;;6.68;4.07;;;6.10;99.90;;;;;;5042448;28;20091;-80
2021/12/05 12:39:19;;;;;;;4.55;3.42;;;6.00;99.90;;;;;;5069803;28;20136;-80
2021/12/05 12:42:19;;;;;;;6.82;4.68;;;6.00;99.90;;;;;;5098037;28;20060;-81
2021/12/05 12:45:05;;;;;;;7.65;4.47;;;5.90;99.90;;;;;;5048581;28;20468;-80
2021/12/05 12:47:33;;;;;;;6.60;4.03;;;5.90;99.90;;;;;;5086367;28;20115;-81
2021/12/05 12:50:24;;;;;;;6.32;4.18;;;5.80;99.90;;;;;;5065754;28;20117;-81
2021/12/05 12:52:59;;;;;;;3.80;3.42;;;5.80;99.90;;;;;;5100995;28;20408;-80
2021/12/05 12:55:30;;;;;;;5.55;4.05;;;5.70;99.90;;;;;;5056105;28;20045;-81
2021/12/05 12:57:56;;;;;;;9.52;4.15;;;5.70;99.90;;;;;;5078834;28;20049;-81
2021/12/05 13:00:28;;;;;;;5.07;4.00;;;5.70;99.90;;;;;;5064539;28;20074;-78
2021/12/05 13:02:59;;;;;;;7.93;3.80;;;5.60;99.90;;;;;;5102689;28;20040;-80
2021/12/05 13:11:17;;;;;;;7.57;4.22;;;5.60;99.90;;;;;;5087951;28;20381;-81
2021/12/05 13:13:46;;;;;;;6.70;3.75;;;5.60;99.90;;;;;;5073434;28;20106;-81
2021/12/05 13:16:14;;;;;;;4.15;3.42;;;5.60;99.90;;;;;;5119027;27;20401;-79
2021/12/05 13:18:42;;;;;;;6.50;3.40;;;5.60;99.90;;;;;;5052247;28;20044;-80
2021/12/05 13:21:28;;;;;;;8.43;3.70;;;5.60;99.90;;;;;;5036700;28;20048;-81
2021/12/05 13:23:54;;;;;;;6.22;3.97;;;5.60;99.90;;;;;;5041317;28;20140;-79
2021/12/05 13:26:35;;;;;;;8.95;4.57;;;5.60;99.90;;;;;;5068798;28;20123;-80
2021/12/05 13:29:25;;;;;;;10.18;6.10;;;5.70;99.90;;;;;;5062509;28;20048;-80
2021/12/05 13:32:05;;;;;;;7.95;5.43;;;5.70;99.90;;;;;;5054556;28;20060;-80
2021/12/05 13:34:33;;;;;;;9.07;5.38;;;5.70;99.90;;;;;;5102554;27;20032;-81
2021/12/05 13:37:21;;;;;;;6.82;5.63;;;5.70;99.90;;;;;;5054341;28;20098;-80
2021/12/05 13:40:08;;;;;;;10.50;6.72;;;5.70;99.90;;;;;;5057946;28;20036;-79
2021/12/05 13:42:39;;;;;;;8.43;5.30;;;5.80;99.90;;;;;;5073551;28;20180;-77
2021/12/05 13:45:10;;;;;;;8.00;5.57;;;5.80;99.90;;;;;;5073928;28;20416;-79
2021/12/05 13:47:40;;;;;;;7.95;4.95;;;5.90;99.90;;;;;;5055589;28;20128;-79
2021/12/05 13:50:18;;;;;;;6.03;4.28;;;5.90;99.90;;;;;;5033769;28;20056;-79
2021/12/05 13:52:53;;;;;;;7.10;4.28;;;6.00;99.90;;;;;;5033520;28;20493;-78
2021/12/05 13:55:45;;;;;;;7.10;4.28;;;6.10;99.90;;;;;;5099805;27;20690;-79
2021/12/05 13:58:35;;;;;;;7.70;3.53;;;6.10;99.90;;;;;;5063716;28;20051;-79
2021/12/05 14:01:07;;;;;;;5.90;3.15;;;6.20;99.90;;;;;;5072947;28;20087;-78
2021/12/05 14:03:58;;;;;;;7.35;3.85;;;6.20;99.90;;;;;;5073341;28;20036;-79
2021/12/05 14:06:53;;;;;;;6.57;4.18;;;6.20;99.90;;;;;;5073103;28;20054;-79
2021/12/05 14:09:24;;;;;;;5.05;4.18;;;6.20;99.90;;;;;;5057396;28;20062;-81
2021/12/05 14:11:58;;;;;;;7.30;3.20;;;6.20;99.90;;;;;;5073413;28;20056;-80
2021/12/05 14:14:40;;;;;;;5.47;3.50;;;6.20;99.90;;;;;;5073504;28;20051;-79
2021/12/05 14:17:13;;;;;;;6.68;4.88;;;6.10;99.90;;;;;;5100094;28;20104;-78
2021/12/05 14:19:42;;;;;;;6.70;4.10;;;6.10;99.90;;;;;;5068270;28;20040;-78
2021/12/05 14:22:12;;;;;;;8.07;4.82;;;6.10;99.90;;;;;;5088802;28;20056;-79
2021/12/05 14:24:50;;;;;;;7.22;3.90;;;6.00;99.90;;;;;;5072191;28;20098;-77
2021/12/05 14:27:20;;;;;;;10.43;6.03;;;6.10;99.90;;;;;;5107121;28;20040;-77
2021/12/05 14:29:47;;;;;;;6.75;4.35;;;6.00;99.90;;;;;;5083694;28;20055;-80
2021/12/05 14:32:23;;;;;;;7.93;4.10;;;6.10;99.90;;;;;;5053794;28;20043;-78
2021/12/05 14:35:11;;;;;;;5.47;3.80;;;6.10;99.90;;;;;;5066826;28;20041;-81
2021/12/05 14:37:41;;;;;;;5.25;3.50;;;6.00;99.90;;;;;;5081180;28;20059;-80
2021/12/05 14:40:12;;;;;;;7.50;3.42;;;6.00;99.90;;;;;;5073487;28;20098;-80
2021/12/05 14:42:42;;;;;;;5.30;3.55;;;6.00;99.90;;;;;;5090890;28;20389;-78
2021/12/05 14:45:14;;;;;;;8.02;3.97;;;6.00;99.90;;;;;;5051194;28;20151;-77
2021/12/05 14:47:42;;;;;;;4.22;3.50;;;6.00;99.90;;;;;;5033201;28;20057;-79
2021/12/05 14:50:14;;;;;;;5.05;4.10;;;6.00;99.90;;;;;;5034743;28;20056;-77
2021/12/05 14:52:46;;;;;;;7.50;3.63;;;5.90;99.90;;;;;;5032833;28;20482;-77
2021/12/05 14:55:14;;;;;;;8.02;4.28;;;5.90;99.90;;;;;;5049855;28;20099;-77
2021/12/05 14:57:44;;;;;;;5.03;3.65;;;5.90;99.90;;;;;;5065516;28;20040;-77
2021/12/05 15:00:17;;;;;;;5.90;4.32;;;5.80;99.90;;;;;;5073891;28;20135;-79
2021/12/05 15:02:44;;;;;;;;;;;5.80;99.90;;;;;;5066654;28;20044;-78
2021/12/05 15:05:12;;;;;;;5.78;3.58;;;5.70;99.90;;;;;;5044103;28;19920;-79
2021/12/05 15:07:38;;;;;;;5.07;3.97;;;5.60;99.90;;;;;;5072613;28;20037;-78
2021/12/05 15:10:05;;;;;;;5.32;3.75;;;5.60;99.90;;;;;;5104879;28;20416;-78
2021/12/05 15:12:33;;;;;;;5.18;4.25;;;5.50;99.90;;;;;;5081451;28;20044;-81
2021/12/05 15:15:09;;;;;;;6.13;4.10;;;5.50;99.90;;;;;;5040358;28;20048;-78
2021/12/05 15:17:40;;;;;;;5.50;4.72;;;5.50;99.90;;;;;;5036933;28;20097;-79
2021/12/05 15:20:11;;;;;;;6.72;4.47;;;5.50;99.90;;;;;;5034154;28;20052;-78
2021/12/05 15:22:37;;;;;;;7.45;4.30;;;5.40;99.90;;;;;;5052283;28;21736;-77
2021/12/05 15:25:07;;;;;;;5.43;4.85;;;5.30;99.90;;;;;;5033993;28;20091;-78
2021/12/05 15:27:35;;;;;;;8.55;6.05;;;5.30;99.90;;;;;;5124076;27;20790;-78
2021/12/05 15:30:23;;;;;;;6.32;4.85;;;5.40;99.90;;;;;;5127606;27;20130;-78
2021/12/05 15:32:55;;;;;;;5.63;4.55;;;5.40;99.90;;;;;;5064340;28;20080;-78
2021/12/05 15:35:22;;;;;;;5.88;5.15;;;5.20;99.90;;;;;;5090348;28;20523;-78
2021/12/05 15:38:05;;;;;;;7.75;5.45;;;5.30;99.90;;;;;;5060208;28;20403;-79
2021/12/05 15:40:33;;;;;;;7.22;5.30;;;5.20;99.90;;;;;;5073430;28;20028;-79
2021/12/05 15:43:03;;;;;;;6.30;4.93;;;5.20;99.90;;;;;;5101071;28;20044;-78
2021/12/05 15:45:29;;;;;;;6.22;5.38;;;5.20;99.90;;;;;;5089995;28;20139;-79
2021/12/05 15:47:59;;;;;;;7.32;4.97;;;5.20;99.90;;;;;;5077930;28;20053;-80
2021/12/05 15:50:32;;;;;;;7.85;5.50;;;5.30;99.90;;;;;;5090935;28;20063;-79
2021/12/05 15:52:59;;;;;;;6.97;6.32;;;5.20;99.90;;;;;;5060136;28;20040;-80
2021/12/05 15:55:39;;;;;;;7.40;6.50;;;5.30;99.90;;;;;;5070375;28;20047;-80
2021/12/05 15:58:09;;;;;;;9.60;6.25;;;5.20;99.90;;;;;;5056685;28;20071;-79
2021/12/05 16:00:40;;;;;;;8.13;6.15;;;5.30;99.90;;;;;;5090044;28;20048;-80
2021/12/05 16:03:15;;;;;;;7.25;5.90;;;5.20;99.90;;;;;;5073036;28;20515;-78
2021/12/05 16:05:43;;;;;;;10.30;7.75;;;5.20;99.90;;;;;;5095156;28;20131;-79
2021/12/05 16:08:14;;;;;;;9.55;7.90;;;5.10;99.90;;;;;;5090007;28;20140;-78
2021/12/05 16:10:47;;;;;;;8.52;7.57;;;5.10;99.90;;;;;;5074311;28;20048;-77
2021/12/05 16:13:14;;;;;;;7.25;5.97;;;5.10;99.90;;;;;;5089974;28;20048;-77
2021/12/05 16:15:46;;;;;;;6.82;5.85;;;5.20;99.90;;;;;;5068574;28;20052;-79
2021/12/05 16:18:13;;;;;;;6.70;6.10;;;5.10;99.90;;;;;;5103005;28;20052;-77
2021/12/05 16:20:47;;;;;;;7.65;6.85;;;5.10;99.90;;;;;;5068410;28;20101;-78
2021/12/05 16:23:13;;;;;;;7.90;7.00;;;5.10;99.90;;;;;;5080820;28;20052;-79
2021/12/05 16:26:12;;;;;;;7.22;6.47;;;5.10;99.90;;;;;;5070544;28;20045;-78
2021/12/05 16:28:44;;;;;;;7.60;6.75;;;5.10;99.90;;;;;;5063734;28;20064;-79
2021/12/05 16:31:17;;;;;;;9.68;6.03;;;5.10;99.90;;;;;;5091620;28;20036;-78
2021/12/05 16:33:49;;;;;;;6.45;5.78;;;5.10;99.90;;;;;;5096816;28;20052;-79
2021/12/05 16:36:19;;;;;;;7.93;6.85;;;5.40;99.90;;;;;;5054120;28;20396;-79
2021/12/05 16:38:51;;;;;;;7.18;6.43;;;5.10;99.90;;;;;;5069698;28;20044;-78
2021/12/05 16:41:26;;;;;;;7.47;6.60;;;5.20;99.90;;;;;;5057421;28;20051;-78
2021/12/05 16:44:10;;;;;;;7.78;6.93;;;5.10;99.90;;;;;;5074614;28;20044;-79
2021/12/05 16:46:46;;;;;;;8.40;7.18;;;5.10;99.90;;;;;;5080862;28;20052;-79
2021/12/05 16:49:45;;;;;;;10.15;7.97;;;5.10;99.90;;;;;;5070743;28;20452;-79
2021/12/05 16:52:20;;;;;;;9.20;8.27;;;5.10;99.90;;;;;;5091706;27;20053;-77
2021/12/05 16:55:09;;;;;;;9.82;7.75;;;5.00;99.90;;;;;;5079176;28;20043;-79
2021/12/05 16:57:43;;;;;;;9.15;7.30;;;5.00;99.90;;;;;;5068150;28;20041;-80
2021/12/05 17:00:15;;;;;;;8.98;7.95;;;5.00;99.90;;;;;;5052643;28;20794;-78
2021/12/05 17:02:52;;;;;;;9.52;7.45;;;5.00;99.90;;;;;;5080252;28;20041;-78
2021/12/05 17:05:26;;;;;;;8.30;7.50;;;5.00;99.90;;;;;;5081723;28;20045;-79
2021/12/05 17:08:10;;;;;;;8.45;7.50;;;5.00;99.90;;;;;;5117750;27;20111;-78
2021/12/05 17:10:42;;;;;;;9.57;7.90;;;5.00;99.90;;;;;;5089900;28;20415;-79
2021/12/05 17:13:17;;;;;;;8.85;7.95;;;5.00;99.90;;;;;;5074442;28;20541;-80
2021/12/05 17:16:01;;;;;;;10.05;8.70;;;5.00;99.90;;;;;;5052801;28;20048;-80
2021/12/05 17:18:36;;;;;;;9.48;7.75;;;4.90;99.90;;;;;;5058042;28;20599;-80
2021/12/05 17:21:17;;;;;;;9.48;8.02;;;4.90;99.90;;;;;;5061238;28;20048;-77
2021/12/05 17:23:52;;;;;;;9.80;7.70;;;4.90;99.90;;;;;;5103113;28;20036;-81
2021/12/05 17:26:23;;;;;;;9.77;7.82;;;4.90;99.90;;;;;;5070045;28;20131;-77
2021/12/05 17:28:56;;;;;;;11.35;9.25;;;4.90;99.90;;;;;;5047062;28;20056;-77
2021/12/05 17:31:41;;;;;;;9.90;8.05;;;4.90;99.90;;;;;;5074837;28;20133;-80
2021/12/05 17:34:38;;;;;;;13.38;9.07;;;4.90;99.90;;;;;;5074523;28;20112;-79
2021/12/05 17:37:10;;;;;;;10.82;9.38;;;4.90;99.90;;;;;;5056129;28;20056;-80
2021/12/05 17:39:42;;;;;;;12.38;9.80;;;4.80;99.90;;;;;;5088497;28;20068;-79
2021/12/05 17:42:30;;;;;;;11.95;9.80;;;4.90;99.90;;;;;;5068467;28;20531;-80
2021/12/05 17:45:01;;;;;;;12.15;10.32;;;4.90;99.90;;;;;;5055947;28;20079;-79
2021/12/05 17:47:28;;;;;;;10.68;9.52;;;4.90;99.90;;;;;;5111889;27;20048;-80
2021/12/05 17:49:58;;;;;;;12.02;10.43;;;4.90;99.90;;;;;;5066197;28;20129;-80
2021/12/05 17:52:27;;;;;;;11.75;10.55;;;4.90;99.90;;;;;;5069682;28;20119;-79
2021/12/05 17:55:00;;;;;;;14.55;11.30;;;4.90;99.90;;;;;;5073457;28;20046;-77
2021/12/05 17:58:21;;;;;;;13.40;11.00;;;4.90;99.90;;;;;;5065100;28;20047;-79
2021/12/05 18:02:57;;;;;;;15.15;10.88;;;4.90;99.90;;;;;;5075061;28;20075;-78
2021/12/05 18:05:27;;;;;;;14.07;11.70;;;4.90;99.90;;;;;;5063217;28;20056;-77
2021/12/05 18:07:57;;;;;;;19.90;13.50;;;4.90;99.90;;;;;;5041934;28;20076;-77
2021/12/05 18:10:26;;;;;;;19.73;14.48;;;5.00;99.90;;;;;;5050830;28;20052;-79
2021/12/05 18:12:57;;;;;;;22.70;15.25;;;4.90;99.90;;;;;;5092939;28;20040;-77
2021/12/05 18:15:28;;;;;;;16.23;12.27;;;4.90;99.90;;;;;;5073247;28;20047;-81
2021/12/05 18:17:56;;;;;;;16.65;11.60;;;5.00;99.90;;;;;;5051235;28;20132;-77
2021/12/05 18:20:25;;;;;;;12.82;10.82;;;4.90;99.90;;;;;;5088753;28;20040;-80
2021/12/05 18:22:54;;;;;;;13.65;11.00;;;4.90;99.90;;;;;;5059150;28;20045;-78
2021/12/05 18:25:20;;;;;;;15.32;10.65;;;4.90;99.90;;;;;;5090143;28;20043;-79
2021/12/05 18:27:46;;;;;;;12.45;9.63;;;4.90;99.90;;;;;;5063979;28;20047;-78
2021/12/05 18:30:14;;;;;;;13.68;10.65;;;4.90;99.90;;;;;;5047940;28;20113;-77
2021/12/05 18:32:40;;;;;;;15.35;11.23;;;4.90;99.90;;;;;;5048323;28;20044;-80
2021/12/05 18:35:07;;;;;;;16.58;12.00;;;5.00;99.90;;;;;;5068895;28;20083;-79